Sheridan, IN (46069)

9:19 PM EST on February 06, 2016 (GMT -0500)
Sumara | | Change Station
CLOSE
Current Station
Personal Weather Station
Location: Cicero, IN
Elevation: 886 ft
Nearby Weather Stations

Elev 886 ft 40.13 °N, 86.09 °W | Updated 6 seconds ago

Overcast
Overcast
35.8 °F
Feels Like 36 °F
N
0.0
Wind Variable Wind from WSW
Gusts 0.0 mph

Today
High -- | Low -- °F
--% Chance of Precip.
Yesterday
High -- | Low -- °F
Precip. -- in
Pressure 30.20 in
Visibility 10.0 miles
Clouds Clear
Windchill 36 °F
Dew Point 20 °F
Humidity 52%
Rainfall 0.00 in
Snow Depth Not available.
7:49 AM 6:09 PM
Waning Crescent, 3% visible
METAR KTYQ 070155Z AUTO 19006KT 10SM CLR 00/M04 A3020 RMK AO2 T00011038
Pressure 30.20 in
Visibility 10.0 miles
Clouds Clear
Windchill 36 °F
Dew Point 20 °F
Humidity 52%
Rainfall 0.00 in
Snow Depth Not available.
7:49 AM 6:09 PM
Waning Crescent, 3% visible
METAR KTYQ 070155Z AUTO 19006KT 10SM CLR 00/M04 A3020 RMK AO2 T00011038

10-Day Weather Forecast

Almanac

Astronomy

Feb. 06, 2016 Rise Set
Actual Time
Civil Twilight
Nautical Twilight
Astronomical Twilight
Moon
Length of Visible Light
Length of Day
Tomorrow will be .
, % of the Moon is Illuminated

Today's Extremes

State Highs State Lows

Community

WunderPhotos

Upload Photos

1,891,138 photos uploaded!

WunderBlog® & News

Nearby

Air Quality

  Air Quality AQ Index Pollutant
Not available.

Snow Depth

Station Depth Elevation

Earthquake Activity

City Distance Mag. Time & Date
Minimum magnitude displayed is 2.5.

Coastal Water Temperatures

Place Temperature

Stations

Nearby Weather Stations

Station Location Temp. Windchill Dew Point Humidity Wind Precip. Elev Updated Type
                   

Watches & Warnings

There are currently no watches in effect.